createdAt,value
2018-02-08T00:00:51.947Z,16.48
2018-02-08T00:03:19.388Z,16.45
2018-02-08T00:05:46.822Z,16.95
2018-02-08T00:08:14.277Z,17.95
2018-02-08T00:10:41.882Z,16.80
2018-02-08T00:13:09.524Z,18.42
2018-02-08T00:15:36.970Z,17.27
2018-02-08T00:18:04.426Z,16.58
2018-02-08T00:20:31.854Z,17.77
2018-02-08T00:22:59.298Z,17.40
2018-02-08T00:25:27.504Z,17.50
2018-02-08T00:27:54.977Z,16.87
2018-02-08T00:30:22.422Z,16.92
2018-02-08T00:32:49.873Z,16.70
2018-02-08T00:35:17.321Z,16.35
2018-02-08T00:37:44.768Z,16.23
2018-02-08T00:40:12.217Z,17.77
2018-02-08T00:42:39.661Z,17.42
2018-02-08T00:45:07.862Z,17.50
2018-02-08T00:47:35.347Z,17.05
2018-02-08T00:50:02.790Z,17.00
2018-02-08T00:52:30.238Z,17.70
2018-02-08T00:54:57.687Z,18.90
2018-02-08T00:57:25.281Z,17.20
2018-02-08T00:59:52.720Z,17.10
2018-02-08T01:02:20.169Z,17.15
2018-02-08T01:04:47.657Z,17.08
2018-02-08T01:07:15.085Z,17.17
2018-02-08T01:09:42.568Z,17.80
2018-02-08T01:12:10.013Z,17.60
2018-02-08T01:14:37.485Z,17.80
2018-02-08T01:17:04.916Z,18.58
2018-02-08T01:19:32.352Z,17.30
2018-02-08T01:21:59.810Z,18.27
2018-02-08T01:24:27.305Z,18.27
2018-02-08T01:26:54.738Z,18.20
2018-02-08T01:29:22.193Z,18.67
2018-02-08T01:31:49.662Z,18.35
2018-02-08T01:34:17.117Z,18.92
2018-02-08T01:36:44.569Z,17.60
2018-02-08T01:39:12.026Z,18.95
2018-02-08T01:41:39.488Z,17.52
2018-02-08T01:44:06.929Z,17.05
2018-02-08T01:46:34.379Z,18.17
2018-02-08T01:49:01.869Z,17.33
2018-02-08T01:51:29.312Z,17.30
2018-02-08T01:53:56.785Z,17.55
2018-02-08T01:56:24.209Z,18.60
2018-02-08T01:58:51.678Z,18.40
2018-02-08T02:01:19.133Z,19.45
2018-02-08T02:03:46.578Z,17.90
2018-02-08T02:06:14.030Z,18.10
2018-02-08T02:08:41.473Z,18.42
2018-02-08T02:11:08.930Z,18.08
2018-02-08T02:13:36.369Z,18.23
2018-02-08T02:16:04.582Z,17.50
2018-02-08T02:18:32.037Z,18.70
2018-02-08T02:20:59.630Z,16.85
2018-02-08T02:23:27.074Z,18.07
2018-02-08T02:25:54.520Z,18.37
2018-02-08T02:28:21.993Z,18.20
2018-02-08T02:30:49.550Z,18.73
2018-02-08T02:33:16.997Z,18.40
2018-02-08T02:35:44.459Z,17.73
2018-02-08T02:38:11.901Z,19.77
2018-02-08T02:40:39.339Z,18.80
2018-02-08T02:43:06.784Z,19.40
2018-02-08T02:45:34.287Z,18.95
2018-02-08T02:48:01.801Z,19.90
2018-02-08T02:50:29.238Z,21.40
2018-02-08T02:52:57.473Z,22.83
2018-02-08T02:55:25.112Z,22.23
2018-02-08T02:57:52.563Z,24.25
2018-02-08T03:00:20.006Z,24.27
2018-02-08T03:02:47.453Z,24.55
2018-02-08T03:05:14.893Z,23.08
2018-02-08T03:07:43.125Z,22.95
2018-02-08T03:10:10.693Z,22.25
2018-02-08T03:12:38.151Z,23.42
2018-02-08T03:15:05.609Z,22.85
2018-02-08T03:17:33.149Z,23.25
2018-02-08T03:20:00.590Z,22.23
2018-02-08T03:22:28.022Z,23.05
2018-02-08T03:24:56.226Z,23.97
2018-02-08T03:27:23.809Z,23.40
2018-02-08T03:29:51.261Z,21.65
2018-02-08T03:32:18.814Z,23.12
2018-02-08T03:34:46.270Z,23.20
2018-02-08T03:37:13.934Z,23.27
2018-02-08T03:39:41.392Z,23.00
2018-02-08T03:42:08.857Z,23.08
2018-02-08T03:44:36.311Z,23.35
2018-02-08T03:47:03.751Z,22.40
2018-02-08T03:49:31.297Z,22.75
2018-02-08T03:51:58.721Z,23.35
2018-02-08T03:54:26.237Z,23.70
2018-02-08T03:56:53.698Z,23.80
2018-02-08T03:59:21.154Z,24.58
2018-02-08T04:01:48.595Z,22.90
2018-02-08T04:04:16.024Z,23.15
2018-02-08T04:06:43.468Z,22.30
2018-02-08T04:09:10.893Z,21.90
2018-02-08T04:11:38.428Z,22.17
2018-02-08T04:14:05.901Z,22.35
2018-02-08T04:16:33.418Z,21.70
2018-02-08T04:19:00.933Z,23.10
2018-02-08T04:21:28.374Z,23.12
2018-02-08T04:23:55.817Z,23.50
2018-02-08T04:26:23.285Z,22.90
2018-02-08T04:28:50.736Z,22.92
2018-02-08T04:31:18.190Z,24.35
2018-02-08T04:33:45.627Z,22.87
2018-02-08T04:36:13.202Z,23.83
2018-02-08T04:38:52.532Z,21.87
2018-02-08T04:41:32.053Z,21.77
2018-02-08T04:44:17.247Z,23.35
2018-02-08T04:46:50.658Z,24.85
2018-02-08T04:49:18.108Z,25.55
2018-02-08T04:51:45.652Z,24.10
2018-02-08T04:54:13.099Z,23.17
2018-02-08T04:56:40.536Z,22.67
2018-02-08T04:59:08.006Z,24.13
2018-02-08T05:01:35.442Z,22.00
2018-02-08T05:04:02.943Z,22.75
2018-02-08T05:06:30.390Z,21.77
2018-02-08T05:08:57.982Z,22.77
2018-02-08T05:11:25.385Z,22.42
2018-02-08T05:13:52.833Z,23.20
2018-02-08T05:16:20.333Z,23.80
2018-02-08T05:18:47.996Z,22.98
2018-02-08T05:21:15.454Z,23.50
2018-02-08T05:23:42.990Z,23.75
2018-02-08T05:26:10.426Z,24.77
2018-02-08T05:28:37.925Z,24.20
2018-02-08T05:31:05.375Z,23.50
2018-02-08T05:33:32.813Z,21.90
2018-02-08T05:36:00.377Z,24.20
2018-02-08T05:38:27.822Z,23.45
2018-02-08T05:40:55.253Z,24.90
2018-02-08T05:43:22.717Z,24.73
2018-02-08T05:45:50.161Z,24.35
2018-02-08T05:48:18.373Z,23.77
2018-02-08T05:50:45.866Z,24.85
2018-02-08T05:53:13.321Z,25.00
2018-02-08T05:55:40.781Z,24.35
2018-02-08T05:58:08.229Z,24.08
2018-02-08T06:00:35.750Z,25.40
2018-02-08T06:03:03.193Z,24.20
2018-02-08T06:05:30.713Z,23.27
2018-02-08T06:07:58.174Z,24.20
2018-02-08T06:10:25.628Z,24.70
2018-02-08T06:12:53.073Z,24.05
2018-02-08T06:15:20.526Z,24.00
2018-02-08T06:17:47.948Z,25.10
2018-02-08T06:20:15.541Z,23.83
2018-02-08T06:22:42.984Z,25.02
2018-02-08T06:25:10.520Z,24.75
2018-02-08T06:27:37.947Z,24.70
2018-02-08T06:30:06.150Z,23.80
2018-02-08T06:32:33.636Z,24.75
2018-02-08T06:35:01.150Z,26.35
2018-02-08T06:37:28.580Z,27.40
2018-02-08T06:39:56.839Z,25.47
2018-02-08T06:42:24.394Z,25.40
2018-02-08T06:44:51.879Z,27.05
2018-02-08T06:47:19.313Z,27.50
2018-02-08T06:49:46.794Z,27.85
2018-02-08T06:52:15.012Z,25.35
2018-02-08T06:54:42.493Z,26.30
2018-02-08T06:57:09.957Z,26.42
2018-02-08T06:59:37.584Z,34.95
2018-02-08T07:02:05.053Z,28.83
2018-02-08T07:04:32.525Z,27.20
2018-02-08T07:07:00.251Z,34.15
2018-02-08T07:09:27.684Z,26.02
2018-02-08T07:11:55.124Z,27.37
2018-02-08T07:14:23.354Z,27.90
2018-02-08T07:16:50.798Z,28.20
2018-02-08T07:19:18.277Z,28.90
2018-02-08T07:21:45.964Z,27.50
2018-02-08T07:24:13.521Z,30.40
2018-02-08T07:26:41.031Z,28.80
2018-02-08T07:29:08.487Z,27.73
2018-02-08T07:31:35.918Z,28.58
2018-02-08T07:34:04.135Z,27.35
2018-02-08T07:36:31.561Z,27.48
2018-02-08T07:38:59.034Z,26.45
2018-02-08T07:41:26.521Z,27.60
2018-02-08T07:43:53.969Z,26.65
2018-02-08T07:46:21.461Z,27.52
2018-02-08T07:48:48.913Z,26.95
2018-02-08T07:51:17.158Z,27.52
2018-02-08T07:53:44.589Z,26.35
2018-02-08T07:56:12.033Z,26.60
2018-02-08T07:58:39.498Z,25.80
2018-02-08T08:01:06.936Z,25.37
2018-02-08T08:03:35.233Z,23.20
2018-02-08T08:06:02.744Z,23.20
2018-02-08T08:08:30.364Z,22.20
2018-02-08T08:10:57.853Z,22.75
2018-02-08T08:13:25.407Z,26.35
2018-02-08T08:15:52.867Z,23.90
2018-02-08T08:18:20.405Z,23.33
2018-02-08T08:20:47.846Z,22.92
2018-02-08T08:23:15.326Z,22.65
2018-02-08T08:25:42.772Z,22.80
2018-02-08T08:28:10.197Z,22.25
2018-02-08T08:30:37.648Z,22.73
2018-02-08T08:33:05.105Z,23.83
2018-02-08T08:35:32.542Z,23.15
2018-02-08T08:38:00.746Z,24.00
2018-02-08T08:40:28.202Z,23.00
2018-02-08T08:42:55.777Z,23.60
2018-02-08T08:45:23.445Z,23.33
2018-02-08T08:47:50.881Z,24.80
2018-02-08T08:50:18.329Z,24.58
2018-02-08T08:52:45.809Z,23.60
2018-02-08T08:55:13.287Z,24.80
2018-02-08T08:57:41.546Z,22.70
2018-02-08T09:00:09.006Z,24.33
2018-02-08T09:02:36.444Z,23.27
2018-02-08T09:05:03.938Z,22.60
2018-02-08T09:07:31.370Z,24.60
2018-02-08T09:09:58.822Z,23.87
2018-02-08T09:12:26.264Z,23.75
2018-02-08T09:14:53.695Z,25.17
2018-02-08T09:17:22.373Z,25.45
2018-02-08T09:19:50.582Z,26.90
2018-02-08T09:22:18.070Z,25.95
2018-02-08T09:24:45.507Z,25.00
2018-02-08T09:27:12.978Z,26.50
2018-02-08T09:29:40.415Z,25.88
2018-02-08T09:32:07.856Z,26.55
2018-02-08T09:34:35.346Z,28.20
2018-02-08T09:37:02.907Z,25.25
2018-02-08T09:39:30.345Z,27.90
2018-02-08T09:41:57.961Z,26.15
2018-02-08T09:44:25.394Z,26.77
2018-02-08T09:46:52.849Z,27.45
2018-02-08T09:49:20.301Z,26.15
2018-02-08T09:51:47.810Z,25.65
2018-02-08T09:54:15.294Z,25.58
2018-02-08T09:56:42.725Z,26.35
2018-02-08T09:59:10.238Z,25.55
2018-02-08T10:01:37.739Z,26.30
2018-02-08T10:04:05.226Z,27.27
2018-02-08T10:06:32.670Z,25.97
2018-02-08T10:09:00.146Z,26.10
2018-02-08T10:11:27.600Z,24.52
2018-02-08T10:13:55.060Z,24.90
2018-02-08T10:16:22.517Z,24.98
2018-02-08T10:18:50.794Z,24.33
2018-02-08T10:21:18.250Z,24.87
2018-02-08T10:23:45.787Z,25.33
2018-02-08T10:26:13.222Z,25.02
2018-02-08T10:28:40.674Z,23.90
2018-02-08T10:31:08.149Z,25.20
2018-02-08T10:33:35.609Z,26.02
2018-02-08T10:36:03.111Z,24.90
2018-02-08T10:38:30.633Z,24.77
2018-02-08T10:40:58.076Z,25.20
2018-02-08T10:43:25.511Z,23.08
2018-02-08T10:45:52.990Z,24.17
2018-02-08T10:48:20.433Z,24.35
2018-02-08T10:50:47.890Z,25.30
2018-02-08T10:53:15.366Z,24.63
2018-02-08T10:55:42.816Z,23.52
2018-02-08T10:58:10.257Z,23.70
2018-02-08T11:00:37.682Z,25.05
2018-02-08T11:03:05.989Z,25.30
2018-02-08T11:05:33.468Z,22.57
2018-02-08T11:08:00.915Z,24.40
2018-02-08T11:10:28.374Z,24.17
2018-02-08T11:12:55.953Z,24.60
2018-02-08T11:15:23.405Z,25.75
2018-02-08T11:17:51.753Z,25.50
2018-02-08T11:20:19.241Z,24.95
2018-02-08T11:22:46.694Z,25.17
2018-02-08T11:25:14.146Z,28.30
2018-02-08T11:27:41.597Z,26.23
2018-02-08T11:30:09.136Z,25.05
2018-02-08T11:32:36.617Z,26.85
2018-02-08T11:35:04.169Z,26.65
2018-02-08T11:37:31.626Z,28.27
2018-02-08T11:39:59.082Z,27.60
2018-02-08T11:42:26.507Z,29.25
2018-02-08T11:44:54.093Z,27.25
2018-02-08T11:47:21.531Z,28.52
2018-02-08T11:49:48.990Z,28.08
2018-02-08T11:52:16.445Z,27.98
2018-02-08T11:54:43.897Z,29.25
2018-02-08T11:57:11.341Z,29.08
2018-02-08T11:59:38.832Z,28.02
2018-02-08T12:02:06.322Z,28.55
2018-02-08T12:04:33.769Z,28.40
2018-02-08T12:07:01.202Z,29.98
2018-02-08T12:09:28.743Z,29.70
2018-02-08T12:11:56.346Z,28.08
2018-02-08T12:14:24.680Z,29.98
2018-02-08T12:16:52.185Z,28.83
2018-02-08T12:19:19.626Z,28.60
2018-02-08T12:21:47.162Z,31.03
2018-02-08T12:24:14.741Z,30.35
2018-02-08T12:26:42.185Z,32.00
2018-02-08T12:29:09.637Z,32.28
2018-02-08T12:31:37.184Z,30.08
2018-02-08T12:34:04.738Z,31.45
2018-02-08T12:36:32.177Z,32.03
2018-02-08T12:38:59.792Z,30.95
2018-02-08T12:41:27.254Z,32.40
2018-02-08T12:43:54.759Z,33.08
2018-02-08T12:46:22.185Z,32.80
2018-02-08T12:48:50.442Z,30.80
2018-02-08T12:51:17.992Z,31.87
2018-02-08T12:53:45.624Z,32.08
2018-02-08T12:56:13.050Z,32.25
2018-02-08T12:58:40.500Z,33.10
2018-02-08T13:01:08.744Z,33.15
2018-02-08T13:03:36.269Z,34.58
2018-02-08T13:06:03.693Z,33.53
2018-02-08T13:08:31.189Z,33.85
2018-02-08T13:10:58.649Z,33.35
2018-02-08T13:13:27.351Z,35.67
2018-02-08T13:15:54.815Z,38.80
2018-02-08T13:18:22.266Z,35.40
2018-02-08T13:20:49.706Z,37.30
2018-02-08T13:23:17.169Z,35.88
2018-02-08T13:25:44.741Z,35.65
2018-02-08T13:28:12.169Z,37.95
2018-02-08T13:30:39.669Z,36.50
2018-02-08T13:33:07.118Z,38.05
2018-02-08T13:35:34.648Z,38.58
2018-02-08T13:38:02.114Z,40.15
2018-02-08T13:40:41.420Z,39.03
2018-02-08T13:43:08.894Z,40.28
2018-02-08T13:45:36.361Z,36.53
2018-02-08T13:51:13.005Z,38.65
2018-02-08T13:54:01.401Z,41.10
2018-02-08T13:59:31.841Z,41.10
2018-02-08T14:02:00.082Z,38.95
2018-02-08T14:04:27.506Z,40.28
2018-02-08T14:06:55.747Z,41.37
2018-02-08T14:09:23.202Z,40.65
2018-02-08T14:11:50.686Z,44.92
2018-02-08T14:14:18.230Z,42.70
2018-02-08T14:16:45.677Z,41.60
2018-02-08T14:19:13.132Z,41.88
2018-02-08T14:21:40.578Z,42.88
2018-02-08T14:24:08.041Z,40.97
2018-02-08T14:26:35.492Z,41.37
2018-02-08T14:29:02.946Z,41.65
2018-02-08T14:31:30.410Z,41.63
2018-02-08T14:33:57.941Z,43.40
2018-02-08T14:36:25.376Z,42.97
2018-02-08T14:38:53.614Z,41.95
2018-02-08T14:41:21.057Z,42.10
2018-02-08T14:43:48.697Z,43.45
2018-02-08T14:46:16.103Z,42.90
2018-02-08T14:48:44.356Z,42.90
2018-02-08T14:51:13.306Z,44.17
2018-02-08T14:53:40.901Z,44.55
2018-02-08T14:56:08.356Z,43.35
2018-02-08T14:58:35.874Z,46.33
2018-02-08T15:01:03.322Z,44.30
2018-02-08T15:03:31.547Z,43.10
2018-02-08T15:05:59.004Z,44.83
2018-02-08T15:08:26.456Z,44.47
2018-02-08T15:10:54.025Z,44.28
2018-02-08T15:13:21.478Z,44.97
2018-02-08T15:15:48.935Z,46.13
2018-02-08T15:18:16.581Z,46.92
2018-02-08T15:20:44.058Z,45.45
2018-02-08T15:23:11.521Z,45.67
2018-02-08T15:25:39.084Z,43.15
2018-02-08T15:28:06.531Z,45.45
2018-02-08T15:30:34.003Z,46.28
2018-02-08T15:33:01.546Z,42.88
2018-02-08T15:35:28.986Z,46.17
2018-02-08T15:37:56.528Z,44.90
2018-02-08T15:40:23.977Z,46.45
2018-02-08T15:42:51.417Z,45.70
2018-02-08T15:45:18.895Z,47.42
2018-02-08T15:47:47.081Z,45.60
2018-02-08T15:50:14.523Z,43.67
2018-02-08T15:52:41.964Z,44.15
2018-02-08T15:55:10.506Z,47.35
2018-02-08T15:57:38.010Z,46.70
2018-02-08T16:00:05.512Z,46.22
2018-02-08T16:02:32.937Z,46.67
2018-02-08T16:05:00.513Z,51.88
2018-02-08T16:07:27.966Z,44.70
2018-02-08T16:09:55.423Z,45.70
2018-02-08T16:12:22.974Z,48.00
2018-02-08T16:14:50.410Z,47.83
2018-02-08T16:17:17.842Z,48.80
2018-02-08T16:19:45.272Z,47.80
2018-02-08T16:22:12.719Z,48.03
2018-02-08T16:24:40.339Z,45.90
2018-02-08T16:27:07.778Z,50.50
2018-02-08T16:29:35.296Z,47.47
2018-02-08T16:32:02.740Z,49.85
2018-02-08T16:34:30.820Z,47.17
2018-02-08T16:36:58.282Z,48.13
2018-02-08T16:39:25.697Z,48.10
2018-02-08T16:41:53.143Z,48.78
2018-02-08T16:44:20.603Z,46.40
2018-02-08T16:46:48.088Z,48.25
2018-02-08T16:49:15.544Z,48.45
2018-02-08T16:51:43.033Z,48.75
2018-02-08T16:54:11.250Z,50.67
2018-02-08T16:56:38.719Z,50.65
2018-02-08T16:59:06.898Z,49.58
2018-02-08T17:01:34.350Z,47.33
2018-02-08T17:04:01.780Z,47.80
2018-02-08T17:06:29.225Z,46.63
2018-02-08T17:08:56.664Z,47.38
2018-02-08T17:11:25.388Z,50.35
2018-02-08T17:13:52.810Z,49.83
2018-02-08T17:16:21.264Z,48.40
2018-02-08T17:18:48.698Z,52.33
2018-02-08T17:21:16.165Z,50.70
2018-02-08T17:23:43.608Z,50.33
2018-02-08T17:26:11.061Z,50.33
2018-02-08T17:28:38.564Z,46.97
2018-02-08T17:31:06.792Z,48.95
2018-02-08T17:33:34.261Z,48.22
2018-02-08T17:36:01.698Z,50.70
2018-02-08T17:38:29.142Z,49.90
2018-02-08T17:40:56.597Z,49.05
2018-02-08T17:43:24.050Z,46.20
2018-02-08T17:45:51.517Z,47.35
2018-02-08T17:48:18.969Z,49.05
2018-02-08T17:50:46.553Z,47.80
2018-02-08T17:53:14.009Z,48.80
2018-02-08T17:55:41.561Z,53.05
2018-02-08T17:58:09.017Z,51.33
2018-02-08T18:00:36.460Z,49.63
2018-02-08T18:03:03.913Z,49.42
2018-02-08T18:05:31.374Z,47.53
2018-02-08T18:07:58.949Z,48.35
2018-02-08T18:10:26.593Z,49.33
2018-02-08T18:12:54.075Z,52.58
2018-02-08T18:15:21.517Z,49.95
2018-02-08T18:17:48.994Z,48.85
2018-02-08T18:20:16.449Z,45.95
2018-02-08T18:22:43.893Z,49.45
2018-02-08T18:25:11.319Z,50.90
2018-02-08T18:27:38.805Z,47.22
2018-02-08T18:30:06.233Z,43.47
2018-02-08T18:32:33.721Z,46.10
2018-02-08T18:35:01.159Z,49.75
2018-02-08T18:37:28.629Z,47.13
2018-02-08T18:39:56.090Z,45.42
2018-02-08T18:42:23.517Z,42.40
2018-02-08T18:44:50.964Z,46.17
2018-02-08T18:47:18.461Z,45.88
2018-02-08T18:49:45.904Z,48.03
2018-02-08T18:52:13.345Z,46.92
2018-02-08T18:54:40.922Z,45.10
2018-02-08T18:57:08.365Z,46.25
2018-02-08T18:59:35.801Z,45.30
2018-02-08T19:02:03.248Z,45.78
2018-02-08T19:04:31.462Z,46.33
2018-02-08T19:06:58.884Z,47.95
2018-02-08T19:09:26.329Z,48.97
2018-02-08T19:11:54.539Z,57.15
2018-02-08T19:14:21.967Z,46.63
2018-02-08T19:16:49.393Z,45.00
2018-02-08T19:19:16.837Z,44.83
2018-02-08T19:21:44.262Z,44.22
2018-02-08T19:24:11.736Z,45.22
2018-02-08T19:26:39.204Z,44.93
2018-02-08T19:29:06.646Z,44.50
2018-02-08T19:31:34.096Z,45.55
2018-02-08T19:34:01.553Z,44.58
2018-02-08T19:36:29.037Z,46.28
2018-02-08T19:38:56.469Z,46.22
2018-02-08T19:41:23.900Z,44.33
2018-02-08T19:43:51.321Z,48.95
2018-02-08T19:46:19.530Z,47.10
2018-02-08T19:48:47.203Z,46.22
2018-02-08T19:51:14.650Z,45.40
2018-02-08T19:53:42.061Z,43.60
2018-02-08T19:56:09.499Z,45.05
2018-02-08T19:58:36.929Z,44.75
2018-02-08T20:01:04.437Z,47.47
2018-02-08T20:03:32.675Z,45.85
2018-02-08T20:06:00.145Z,44.50
2018-02-08T20:08:27.983Z,47.78
2018-02-08T20:10:55.427Z,44.55
2018-02-08T20:13:22.858Z,45.38
2018-02-08T20:15:51.086Z,46.30
2018-02-08T20:18:18.535Z,45.00
2018-02-08T20:20:46.283Z,47.42
2018-02-08T20:23:13.883Z,48.60
2018-02-08T20:25:41.335Z,47.55
2018-02-08T20:28:08.792Z,48.25
2018-02-08T20:30:36.238Z,47.83
2018-02-08T20:33:03.786Z,46.83
2018-02-08T20:35:31.228Z,47.20
2018-02-08T20:37:58.904Z,47.60
2018-02-08T20:40:26.927Z,46.77
2018-02-08T20:43:00.047Z,46.90
2018-02-08T20:45:27.548Z,47.13
2018-02-08T20:47:54.989Z,51.20
2018-02-08T20:50:22.504Z,51.55
2018-02-08T20:52:49.969Z,49.40
2018-02-08T20:55:17.653Z,50.78
2018-02-08T20:57:45.118Z,46.63
2018-02-08T21:00:12.558Z,47.35
2018-02-08T21:02:39.998Z,47.03
2018-02-08T21:05:07.478Z,49.92
2018-02-08T21:07:34.936Z,48.40
2018-02-08T21:10:02.388Z,48.53
2018-02-08T21:12:29.852Z,48.70
2018-02-08T21:14:57.293Z,48.75
2018-02-08T21:17:24.771Z,48.45
2018-02-08T21:19:52.351Z,50.20
2018-02-08T21:22:19.793Z,48.70
2018-02-08T21:24:47.321Z,49.80
2018-02-08T21:27:14.773Z,50.05
2018-02-08T21:29:42.212Z,50.58
2018-02-08T21:32:09.689Z,49.67
2018-02-08T21:34:37.284Z,49.50
2018-02-08T21:37:04.662Z,47.43
2018-02-08T21:39:32.905Z,49.70
2018-02-08T21:42:00.473Z,48.78
2018-02-08T21:44:27.919Z,49.47
2018-02-08T21:46:55.353Z,49.85
2018-02-08T21:49:22.825Z,51.47
2018-02-08T21:51:50.287Z,51.28
2018-02-08T21:54:17.853Z,50.45
2018-02-08T21:56:45.473Z,49.38
2018-02-08T21:59:12.892Z,51.08
2018-02-08T22:01:41.120Z,52.50
2018-02-08T22:04:08.574Z,51.13
2018-02-08T22:06:36.037Z,50.72
2018-02-08T22:09:03.493Z,53.67
2018-02-08T22:11:30.949Z,50.30
2018-02-08T22:13:58.409Z,53.00
2018-02-08T22:16:25.867Z,51.60
2018-02-08T22:18:53.325Z,50.80
2018-02-08T22:21:21.060Z,53.08
2018-02-08T22:23:48.474Z,54.28
2018-02-08T22:26:16.742Z,53.87
2018-02-08T22:28:44.181Z,55.42
2018-02-08T22:31:11.638Z,53.40
2018-02-08T22:33:39.209Z,53.38
2018-02-08T22:36:06.654Z,54.13
2018-02-08T22:38:34.214Z,52.65
2018-02-08T22:41:01.753Z,52.35
2018-02-08T22:43:29.190Z,52.88
2018-02-08T22:45:56.625Z,53.78
2018-02-08T22:48:24.176Z,53.10
2018-02-08T22:50:52.118Z,55.88
2018-02-08T22:53:19.650Z,54.30
2018-02-08T22:55:47.124Z,52.30
2018-02-08T22:58:14.678Z,53.25
2018-02-08T23:00:42.128Z,54.20
2018-02-08T23:03:09.576Z,55.55
2018-02-08T23:05:37.022Z,54.17
2018-02-08T23:08:04.613Z,54.45
2018-02-08T23:10:32.162Z,53.87
2018-02-08T23:12:59.593Z,54.92
2018-02-08T23:15:27.038Z,56.15
2018-02-08T23:17:54.489Z,56.08
2018-02-08T23:20:21.993Z,56.03
2018-02-08T23:22:49.437Z,54.72
2018-02-08T23:25:16.894Z,54.97
2018-02-08T23:27:44.333Z,55.90
2018-02-08T23:30:11.813Z,57.22
2018-02-08T23:32:39.372Z,54.28
2018-02-08T23:35:06.819Z,55.05
2018-02-08T23:37:34.342Z,56.37
2018-02-08T23:40:01.769Z,57.40
2018-02-08T23:42:29.979Z,54.70
2018-02-08T23:44:57.415Z,53.20
2018-02-08T23:47:25.625Z,56.20
2018-02-08T23:49:53.069Z,55.40
2018-02-08T23:52:20.509Z,54.95
2018-02-08T23:54:48.005Z,53.97
2018-02-08T23:57:15.465Z,54.90
2018-02-08T23:59:42.918Z,56.45
